Sign-in with your pilot id or email, or register

ICAO: LHDC Name / Country: Debrecen / Hungary
Latitude: 47.4889 Longitude: 21.6153
Total Arrivals:
Strict Standards: Non-static method AirportData::getarrflights() should not be called statically, assuming $this from incompatible context in /var/www/customers/vh-7192/web/home/phpvms/core/templates/airport_info.tpl on line 18
5
Total Departures:
Strict Standards: Non-static method AirportData::getdeptflights() should not be called statically, assuming $this from incompatible context in /var/www/customers/vh-7192/web/home/phpvms/core/templates/airport_info.tpl on line 21
4
Latest Arrival: MTA11P (LHSM-LHDC) Tibor Berces Latest Departure: MTA11P (LHDC-LHBP) Tibor Berces
Metar: LHDC 172215Z AUTO 26010KT CAVOK 16/11 Q1012
More info

Charts for LHDC


NOTAM


Warning: file_get_contents(http://api.vateud.net/notams/LHDC.json): failed to open stream: Redirection limit reached, aborting in /var/www/customers/vh-7192/web/home/phpvms/core/common/NOTAMSData.class.php on line 18

Warning: Invalid argument supplied for foreach() in /var/www/customers/vh-7192/web/home/phpvms/core/common/NOTAMSData.class.php on line 22

Debrecen